バロー の空港の天気 - METARとTAF

Barrow, Wiley Post-Will Rogers Memorial Airport ( PABR / BRW ) - アメリカ アラスカ州バロー
飛行場実況気象(Metar)
観測時間06/24 01:53 AKDT (06/24 09:53 UTC)
風向・風速西 7m/s
視程10km以上
天気現象弱い雨
全天の4割程度の雲 雲底高度 270m
全天を覆う雲 雲底高度 1340m
気温2.2℃
湿度89%
気圧1020.8hPa
METARPABR 240953Z AUTO 28013KT 10SM -RA SCT009 OVC044 02/01 A3014 RMK AO2 UPB35E37 SLP208 P0001 T00220006 TSNO
過去の天気等 Google飛行場航空写真 Wunderground天気予報

過去48時間のMETAR

飛行場予報(TAF)
発表時間: 6/23 21:21 AKDT (6/24 05:21 UTC)
予報対象時間: 23日22時 AKDT ~ 24日22時 AKDT
風向・風速西北西 5m/s
視程10km以上
天気現象周辺でしゅう雨
全天の8割程度の雲 雲底高度 240m
全天を覆う雲 雲底高度 1370m
24日2時 AKDT から
風向・風速西北西 4m/s
視程3220m
天気現象弱い霧雨
全天の8割程度の雲 雲底高度 120m
全天を覆う雲 雲底高度 300m
24日13時 AKDT から
風向・風速北 4m/s
視程10km以上
天気現象周辺で霧
全天を覆う雲 雲底高度 210m
PABR 240521Z 2406/2506 29009KT P6SM VCSH BKN008 OVC045
FM241000 29008KT 2SM -DZ BKN004 OVC010
FM242100 35007KT P6SM VCFG OVC007